Time;durP1;ratioP1;P1;durP2;ratioP2;P2;SDS_P1;SDS_P2;PMS_P1;PMS_P2;Temp;Humidity;BMP_temperature;BMP_pressure;BME280_temperature;BME280_humidity;BME280_pressure;Samples;Min_cycle;Max_cycle;Signal;HPM_P1;HPM_P2
2023/12/29 00:01:13;;;;;;;5.03;1.00;;;9.90;99.90;;;;;;5033211;28;20206;-48
2023/12/29 00:03:42;;;;;;;9.97;1.90;;;10.00;99.90;;;;;;5033875;28;20696;-46
2023/12/29 00:06:39;;;;;;;5.43;1.27;;;10.00;99.90;;;;;;5033421;28;20189;-47
2023/12/29 00:09:05;;;;;;;6.87;1.30;;;9.90;99.90;;;;;;5033309;28;20165;-46
2023/12/29 00:11:30;;;;;;;5.60;0.90;;;10.00;99.90;;;;;;5033201;28;20279;-46
2023/12/29 00:13:59;;;;;;;3.80;1.50;;;10.00;99.90;;;;;;5033145;28;20314;-47
2023/12/29 00:16:27;;;;;;;10.00;1.50;;;10.00;99.90;;;;;;5035183;28;20203;-46
2023/12/29 00:18:53;;;;;;;2.97;1.00;;;10.00;99.90;;;;;;5037803;28;20535;-46
2023/12/29 00:24:43;;;;;;;7.33;1.37;;;10.10;99.90;;;;;;5037254;28;20215;-46
2023/12/29 00:27:09;;;;;;;3.97;1.10;;;10.00;99.90;;;;;;5037247;28;20255;-47
2023/12/29 00:29:36;;;;;;;5.93;1.00;;;10.10;99.90;;;;;;5037336;28;20224;-47
2023/12/29 00:32:05;;;;;;;9.37;1.47;;;10.00;99.90;;;;;;5037380;28;20173;-47
2023/12/29 00:34:31;;;;;;;10.10;1.47;;;10.00;99.90;;;;;;5037179;28;20205;-47
2023/12/29 00:37:06;;;;;;;9.33;1.37;;;10.00;99.90;;;;;;5037002;28;20182;-48
2023/12/29 00:39:38;;;;;;;4.40;1.30;;;10.00;99.90;;;;;;5036938;28;20282;-47
2023/12/29 00:42:06;;;;;;;0.97;0.77;;;10.10;99.90;;;;;;5035599;28;20195;-47
2023/12/29 00:44:34;;;;;;;4.47;1.10;;;10.10;99.90;;;;;;5019399;28;20179;-48
2023/12/29 00:47:02;;;;;;;4.17;1.10;;;10.10;99.90;;;;;;5036503;28;20177;-46
2023/12/29 00:49:31;;;;;;;6.23;2.00;;;10.10;99.90;;;;;;5036978;28;20178;-47
2023/12/29 00:51:57;;;;;;;4.80;1.73;;;10.10;99.90;;;;;;5037639;28;20187;-47
2023/12/29 00:54:24;;;;;;;5.20;1.50;;;10.10;99.90;;;;;;5040781;28;20676;-46
2023/12/29 00:56:51;;;;;;;7.90;1.77;;;10.10;99.90;;;;;;5023444;28;20200;-47
2023/12/29 00:59:20;;;;;;;4.77;1.40;;;10.10;99.90;;;;;;5022788;28;20203;-46
2023/12/29 01:01:46;;;;;;;6.13;1.37;;;10.00;99.90;;;;;;5037038;28;20257;-46
2023/12/29 01:07:34;;;;;;;4.30;1.53;;;10.00;99.90;;;;;;5036863;28;20222;-47
2023/12/29 01:10:00;;;;;;;5.37;1.60;;;10.00;99.90;;;;;;5036425;28;20200;-47
2023/12/29 01:12:26;;;;;;;11.30;1.40;;;10.00;99.90;;;;;;5036737;28;20185;-46
2023/12/29 01:14:53;;;;;;;4.80;1.37;;;10.00;99.90;;;;;;5036318;28;20217;-46
2023/12/29 01:17:22;;;;;;;7.77;1.63;;;10.00;99.90;;;;;;5036312;28;20173;-47
2023/12/29 01:19:47;;;;;;;8.47;1.67;;;10.00;99.90;;;;;;5036693;28;20635;-46
2023/12/29 01:22:16;;;;;;;5.50;1.47;;;10.00;99.90;;;;;;5036289;28;20181;-47
2023/12/29 01:25:05;;;;;;;6.97;1.60;;;10.00;99.90;;;;;;5036236;28;20185;-47
2023/12/29 01:27:35;;;;;;;6.30;1.47;;;10.00;99.90;;;;;;5034878;28;20608;-47
2023/12/29 01:30:08;;;;;;;6.93;2.00;;;10.00;99.90;;;;;;5036409;28;20278;-47
2023/12/29 01:32:45;;;;;;;5.90;1.57;;;10.00;99.90;;;;;;5036275;28;20613;-48
2023/12/29 01:35:12;;;;;;;5.53;1.57;;;10.10;99.90;;;;;;5035867;28;20242;-47
2023/12/29 01:37:42;;;;;;;5.37;1.37;;;10.00;99.90;;;;;;5036046;28;20602;-48
2023/12/29 01:40:20;;;;;;;3.40;1.13;;;10.00;99.90;;;;;;5035847;28;20234;-48
2023/12/29 01:42:47;;;;;;;6.07;1.20;;;10.00;99.90;;;;;;5035112;28;20204;-46
2023/12/29 01:45:23;;;;;;;7.37;1.60;;;10.00;99.90;;;;;;5035655;28;20181;-47
2023/12/29 01:47:55;;;;;;;6.83;1.70;;;10.00;99.90;;;;;;5035727;28;20178;-48
2023/12/29 01:50:24;;;;;;;6.97;1.43;;;9.90;99.90;;;;;;5035845;28;20657;-47
2023/12/29 01:52:53;;;;;;;4.97;1.50;;;10.00;99.90;;;;;;5036112;28;20587;-47
2023/12/29 01:55:21;;;;;;;7.13;1.70;;;9.90;99.90;;;;;;5035538;28;20547;-48
2023/12/29 01:57:51;;;;;;;6.47;1.33;;;9.90;99.90;;;;;;5036377;28;20185;-47
2023/12/29 02:00:21;;;;;;;7.07;1.03;;;10.00;99.90;;;;;;5036081;28;20294;-49
2023/12/29 02:02:49;;;;;;;5.87;1.30;;;10.00;99.90;;;;;;5037384;28;20207;-48
2023/12/29 02:05:21;;;;;;;3.27;1.63;;;10.00;99.90;;;;;;5036142;28;20203;-47
2023/12/29 02:07:51;;;;;;;5.17;1.87;;;10.00;99.90;;;;;;5035550;28;20196;-47
2023/12/29 02:10:20;;;;;;;6.33;1.70;;;10.00;99.90;;;;;;5035842;28;20258;-50
2023/12/29 02:12:54;;;;;;;8.97;1.93;;;10.00;99.90;;;;;;5035590;28;20183;-47
2023/12/29 02:15:20;;;;;;;9.97;1.27;;;9.90;99.90;;;;;;5035125;28;20695;-47
2023/12/29 02:18:00;;;;;;;5.40;1.60;;;9.80;99.90;;;;;;5035097;28;20185;-48
2023/12/29 02:20:27;;;;;;;8.07;1.57;;;9.80;99.90;;;;;;5034964;28;20247;-48
2023/12/29 02:22:55;;;;;;;7.50;1.70;;;9.80;99.90;;;;;;5034986;28;20190;-49
2023/12/29 02:25:25;;;;;;;1.80;1.03;;;9.70;99.90;;;;;;5034938;28;20629;-49
2023/12/29 02:28:04;;;;;;;7.90;1.30;;;9.70;99.90;;;;;;5034974;28;20264;-46
2023/12/29 02:30:46;;;;;;;5.77;1.60;;;9.70;99.90;;;;;;5017654;28;20813;-48
2023/12/29 02:33:21;;;;;;;7.53;1.50;;;9.60;99.90;;;;;;5035103;28;20255;-48
2023/12/29 02:35:52;;;;;;;5.80;1.53;;;9.60;99.90;;;;;;5017169;28;20534;-48
2023/12/29 02:38:18;;;;;;;7.90;1.87;;;9.60;99.90;;;;;;5017200;28;20235;-48
2023/12/29 02:40:46;;;;;;;6.13;1.70;;;9.60;99.90;;;;;;5034696;28;20288;-48
2023/12/29 02:43:19;;;;;;;6.87;1.70;;;9.60;99.90;;;;;;5034728;28;20175;-47
2023/12/29 02:45:46;;;;;;;5.33;1.40;;;9.60;99.90;;;;;;5034922;28;20173;-47
2023/12/29 02:48:16;;;;;;;4.97;1.57;;;9.50;99.90;;;;;;5034533;28;20184;-47
2023/12/29 02:50:43;;;;;;;4.80;1.17;;;9.50;99.90;;;;;;5034456;28;20194;-48
2023/12/29 02:53:09;;;;;;;5.30;1.17;;;9.50;99.90;;;;;;5034153;28;20181;-48
2023/12/29 02:55:34;;;;;;;11.03;1.50;;;9.60;99.90;;;;;;5034358;28;20212;-49
2023/12/29 02:58:03;;;;;;;9.83;1.90;;;9.60;99.90;;;;;;5034593;28;20180;-46
2023/12/29 03:00:29;;;;;;;2.33;1.00;;;9.60;99.90;;;;;;5034196;28;20224;-47
2023/12/29 03:02:56;;;;;;;4.57;1.33;;;9.70;99.90;;;;;;5034458;28;20638;-48
2023/12/29 03:05:22;;;;;;;7.00;1.57;;;9.70;99.90;;;;;;5034062;28;20211;-47
2023/12/29 03:11:14;;;;;;;5.87;1.40;;;9.80;99.90;;;;;;5034142;28;20282;-47
2023/12/29 03:13:39;;;;;;;7.57;1.80;;;9.90;99.90;;;;;;5033814;28;20299;-47
2023/12/29 03:16:08;;;;;;;3.17;1.23;;;9.90;99.90;;;;;;5034047;28;20587;-48
2023/12/29 03:18:38;;;;;;;2.47;1.10;;;9.90;99.90;;;;;;5033998;28;20173;-49
2023/12/29 03:21:05;;;;;;;18.63;1.17;;;9.90;99.90;;;;;;5034065;28;20201;-48
2023/12/29 03:23:31;;;;;;;3.70;1.53;;;9.90;99.90;;;;;;5034940;28;20212;-47
2023/12/29 03:26:00;;;;;;;7.47;1.33;;;9.90;99.90;;;;;;5033729;28;20278;-48
2023/12/29 03:28:25;;;;;;;7.13;1.30;;;9.90;99.90;;;;;;5033739;28;20260;-47
2023/12/29 03:31:41;;;;;;;5.77;1.17;;;10.00;99.90;;;;;;5033961;28;20623;-48
2023/12/29 03:34:12;;;;;;;6.53;1.17;;;10.00;99.90;;;;;;5033915;28;20216;-47
2023/12/29 03:36:38;;;;;;;3.37;1.00;;;10.00;99.90;;;;;;5033646;28;20173;-48
2023/12/29 03:39:04;;;;;;;4.90;1.70;;;10.00;99.90;;;;;;5033908;28;20533;-46
2023/12/29 03:41:30;;;;;;;3.00;1.30;;;10.00;99.90;;;;;;5033526;28;20198;-46
2023/12/29 03:43:56;;;;;;;4.07;1.03;;;10.00;99.90;;;;;;5015948;28;20192;-47
2023/12/29 03:46:22;;;;;;;10.57;1.57;;;10.00;99.90;;;;;;5028050;28;20217;-48
2023/12/29 03:48:49;;;;;;;5.43;1.60;;;10.00;99.90;;;;;;5033311;28;20190;-47
2023/12/29 03:51:18;;;;;;;6.60;1.27;;;10.00;99.90;;;;;;5032664;28;20228;-48
2023/12/29 03:53:44;;;;;;;7.90;1.53;;;10.00;99.90;;;;;;5033231;28;20211;-47
2023/12/29 03:56:16;;;;;;;7.40;1.80;;;10.00;99.90;;;;;;5033633;28;20181;-47
2023/12/29 03:58:50;;;;;;;4.93;1.60;;;10.00;99.90;;;;;;5033773;28;20172;-48
2023/12/29 04:01:25;;;;;;;9.50;1.40;;;10.00;99.90;;;;;;4998292;28;20200;-48
2023/12/29 04:03:51;;;;;;;2.83;1.07;;;10.10;99.90;;;;;;5033469;28;20211;-47
2023/12/29 04:06:16;;;;;;;4.60;1.57;;;10.10;99.90;;;;;;5016060;28;20176;-48
2023/12/29 04:08:42;;;;;;;6.33;1.10;;;10.10;99.90;;;;;;5033331;28;20265;-48
2023/12/29 04:14:31;;;;;;;5.40;1.03;;;10.10;99.90;;;;;;5033076;28;20355;-48
2023/12/29 04:16:56;;;;;;;11.83;1.27;;;10.10;99.90;;;;;;5033181;28;20177;-48
2023/12/29 04:19:25;;;;;;;2.70;1.07;;;10.10;99.90;;;;;;5033323;28;20656;-47
2023/12/29 04:21:51;;;;;;;6.93;1.57;;;10.10;99.90;;;;;;5033388;28;20181;-48
2023/12/29 04:24:30;;;;;;;5.00;1.00;;;10.10;99.90;;;;;;5033087;28;20183;-48
2023/12/29 04:26:59;;;;;;;5.13;1.00;;;10.10;99.90;;;;;;5033435;28;20173;-48
2023/12/29 04:29:24;;;;;;;3.87;1.27;;;10.20;99.90;;;;;;5033029;28;20184;-46
2023/12/29 04:31:51;;;;;;;5.20;1.07;;;10.20;99.90;;;;;;5033751;28;20197;-47
2023/12/29 04:34:23;;;;;;;4.47;1.17;;;10.20;99.90;;;;;;5033568;28;20222;-48
2023/12/29 04:36:52;;;;;;;4.90;1.10;;;10.20;99.90;;;;;;5038251;28;20169;-47
2023/12/29 04:39:17;;;;;;;8.80;1.00;;;10.10;99.90;;;;;;5038231;28;20270;-48
2023/12/29 04:41:43;;;;;;;2.53;0.80;;;10.10;99.90;;;;;;5036657;28;20212;-48
2023/12/29 04:44:09;;;;;;;11.23;1.40;;;10.10;99.90;;;;;;5033954;28;20700;-47
2023/12/29 04:46:35;;;;;;;7.13;1.37;;;10.00;99.90;;;;;;5033463;28;20569;-46
2023/12/29 04:49:09;;;;;;;6.20;1.30;;;10.00;99.90;;;;;;5033107;28;20204;-47
2023/12/29 04:51:34;;;;;;;6.70;1.20;;;10.00;99.90;;;;;;5015545;28;20619;-47
2023/12/29 04:54:02;;;;;;;6.20;1.10;;;9.90;99.90;;;;;;5033189;28;20204;-47
2023/12/29 04:56:29;;;;;;;4.47;0.93;;;9.90;99.90;;;;;;5032042;28;20250;-47
2023/12/29 04:58:56;;;;;;;4.83;1.37;;;9.90;99.90;;;;;;5033015;28;20179;-46
2023/12/29 05:01:28;;;;;;;14.53;1.47;;;9.90;99.90;;;;;;5033202;28;20197;-46
2023/12/29 05:03:55;;;;;;;5.07;1.33;;;9.90;99.90;;;;;;5031336;28;20208;-47
2023/12/29 05:06:25;;;;;;;4.47;1.60;;;9.90;99.90;;;;;;5036905;28;20162;-46
2023/12/29 05:08:51;;;;;;;4.87;1.50;;;9.90;99.90;;;;;;5036757;28;20169;-46
2023/12/29 05:11:28;;;;;;;5.30;1.20;;;9.90;99.90;;;;;;5036487;28;20197;-48
2023/12/29 05:14:06;;;;;;;3.83;1.70;;;9.90;99.90;;;;;;5036545;28;20232;-47
2023/12/29 05:16:32;;;;;;;7.37;1.50;;;9.90;99.90;;;;;;5036373;28;20180;-48
2023/12/29 05:18:57;;;;;;;7.57;1.23;;;9.90;99.90;;;;;;5018695;28;20191;-47
2023/12/29 05:21:26;;;;;;;8.63;1.60;;;9.90;99.90;;;;;;5018686;28;20259;-46
2023/12/29 05:23:52;;;;;;;5.27;1.00;;;9.90;99.90;;;;;;5036125;28;20177;-46
2023/12/29 05:26:21;;;;;;;6.07;1.40;;;9.80;99.90;;;;;;5018348;28;20189;-47
2023/12/29 05:28:46;;;;;;;11.03;1.83;;;9.80;99.90;;;;;;5036252;28;20199;-47
2023/12/29 05:31:16;;;;;;;7.33;1.30;;;9.80;99.90;;;;;;5036011;28;20712;-46
2023/12/29 05:33:45;;;;;;;5.57;1.20;;;9.80;99.90;;;;;;5035985;28;20193;-47
2023/12/29 05:37:00;;;;;;;6.63;1.50;;;9.80;99.90;;;;;;5036179;28;20188;-48
2023/12/29 05:39:29;;;;;;;4.33;1.13;;;9.80;99.90;;;;;;5036095;28;20185;-47
2023/12/29 05:41:56;;;;;;;7.50;1.20;;;9.90;99.90;;;;;;5035787;28;20235;-47
2023/12/29 05:47:43;;;;;;;5.07;1.17;;;9.80;99.90;;;;;;5035817;28;20725;-49
2023/12/29 05:50:10;;;;;;;3.20;1.00;;;9.80;99.90;;;;;;5018364;28;20243;-48
2023/12/29 05:52:37;;;;;;;5.50;1.30;;;9.80;99.90;;;;;;5018043;28;20200;-47
2023/12/29 05:55:04;;;;;;;4.80;1.20;;;9.80;99.90;;;;;;5035619;28;20576;-48
2023/12/29 05:57:30;;;;;;;3.17;0.90;;;9.80;99.90;;;;;;5035802;28;20644;-46
2023/12/29 05:59:57;;;;;;;8.20;1.20;;;9.80;99.90;;;;;;5017688;28;20299;-48
2023/12/29 06:02:29;;;;;;;6.80;1.47;;;9.80;99.90;;;;;;5035355;28;20311;-47
2023/12/29 06:04:57;;;;;;;7.93;1.53;;;9.80;99.90;;;;;;5035166;28;20204;-47
2023/12/29 06:08:11;;;;;;;5.63;1.23;;;9.70;99.90;;;;;;5035678;28;20174;-47
2023/12/29 06:10:39;;;;;;;3.57;1.20;;;9.80;99.90;;;;;;5035366;28;20566;-48
2023/12/29 06:13:06;;;;;;;7.63;1.53;;;9.70;99.90;;;;;;5017590;28;20189;-47
2023/12/29 06:15:34;;;;;;;3.83;0.87;;;9.80;99.90;;;;;;5034678;28;20299;-47
2023/12/29 06:18:00;;;;;;;4.90;1.03;;;9.80;99.90;;;;;;5035389;28;20197;-47
2023/12/29 06:20:29;;;;;;;14.13;1.87;;;9.80;99.90;;;;;;5017339;28;20205;-46
2023/12/29 06:23:08;;;;;;;5.03;0.97;;;9.80;99.90;;;;;;5035371;28;20232;-46
2023/12/29 06:25:39;;;;;;;3.80;1.17;;;9.80;99.90;;;;;;5017263;28;20213;-47
2023/12/29 06:28:25;;;;;;;8.07;1.87;;;9.80;99.90;;;;;;5022820;28;20191;-47
2023/12/29 06:30:51;;;;;;;2.10;1.17;;;9.80;99.90;;;;;;5035139;28;20232;-47
2023/12/29 06:33:30;;;;;;;5.70;1.30;;;9.80;99.90;;;;;;5034906;28;20578;-47
2023/12/29 06:35:55;;;;;;;3.30;1.00;;;9.80;99.90;;;;;;5034852;28;20180;-47
2023/12/29 06:39:11;;;;;;;4.10;1.07;;;9.90;99.90;;;;;;5034937;28;20177;-47
2023/12/29 06:41:37;;;;;;;4.77;1.07;;;9.90;99.90;;;;;;5034729;28;20192;-48
2023/12/29 06:44:04;;;;;;;8.23;1.20;;;9.90;99.90;;;;;;5016925;28;20236;-46
2023/12/29 06:46:30;;;;;;;2.63;0.97;;;9.90;99.90;;;;;;5034738;28;20191;-47
2023/12/29 06:48:57;;;;;;;7.73;1.63;;;9.90;99.90;;;;;;5034633;28;20273;-47
2023/12/29 06:51:24;;;;;;;3.57;1.30;;;9.90;99.90;;;;;;5034606;28;20290;-48
2023/12/29 06:53:56;;;;;;;4.33;1.00;;;9.90;99.90;;;;;;5035924;28;20208;-47
2023/12/29 06:56:23;;;;;;;6.97;1.40;;;10.00;99.90;;;;;;5035442;28;20265;-47
2023/12/29 06:58:49;;;;;;;4.03;1.00;;;10.00;99.90;;;;;;5035946;28;20177;-49
2023/12/29 07:01:15;;;;;;;7.77;1.30;;;9.90;99.90;;;;;;5034353;28;20205;-47
2023/12/29 07:03:43;;;;;;;10.07;1.33;;;9.90;99.90;;;;;;5034527;28;20180;-47
2023/12/29 07:06:54;;;;;;;5.30;1.00;;;9.90;99.90;;;;;;5016761;28;20197;-48
2023/12/29 07:09:20;;;;;;;3.53;0.90;;;9.90;99.90;;;;;;5034176;28;20295;-47
2023/12/29 07:11:49;;;;;;;12.60;1.47;;;9.90;99.90;;;;;;5034603;28;20661;-46
2023/12/29 07:14:15;;;;;;;4.73;0.83;;;9.90;99.90;;;;;;5034038;28;20283;-48
2023/12/29 07:16:51;;;;;;;5.00;1.30;;;9.90;99.90;;;;;;5034321;28;20662;-47
2023/12/29 07:19:17;;;;;;;5.83;1.53;;;9.90;99.90;;;;;;5017176;28;20196;-47
2023/12/29 07:21:42;;;;;;;4.70;1.43;;;9.90;99.90;;;;;;5034453;28;20182;-48
2023/12/29 07:24:08;;;;;;;5.33;0.80;;;9.90;99.90;;;;;;5034083;28;20216;-48
2023/12/29 07:27:05;;;;;;;4.13;1.10;;;9.90;99.90;;;;;;5016262;28;20193;-47
2023/12/29 07:29:31;;;;;;;5.20;1.27;;;9.90;99.90;;;;;;5015960;28;20212;-46
2023/12/29 07:32:00;;;;;;;2.50;1.00;;;9.90;99.90;;;;;;5033789;28;20600;-47
2023/12/29 07:34:26;;;;;;;4.70;1.67;;;9.80;99.90;;;;;;5033639;28;20201;-46
2023/12/29 07:36:51;;;;;;;6.07;1.87;;;9.80;99.90;;;;;;5033773;28;20585;-48
2023/12/29 07:39:30;;;;;;;8.10;1.43;;;9.80;99.90;;;;;;5033774;28;20275;-49
2023/12/29 07:41:59;;;;;;;4.87;1.07;;;9.70;99.90;;;;;;5033183;28;20231;-49
2023/12/29 07:44:28;;;;;;;4.23;1.30;;;9.60;99.90;;;;;;5009754;28;20197;-48
2023/12/29 07:47:36;;;;;;;5.23;1.03;;;9.50;99.90;;;;;;5033848;28;20255;-47
2023/12/29 07:50:02;;;;;;;7.07;1.53;;;9.50;99.90;;;;;;5033689;28;20270;-47
2023/12/29 07:52:33;;;;;;;7.70;1.50;;;9.40;99.90;;;;;;5033687;28;20181;-48
2023/12/29 07:55:00;;;;;;;7.57;1.30;;;9.40;99.90;;;;;;5016479;28;20197;-47
2023/12/29 07:57:27;;;;;;;5.00;1.23;;;9.30;99.90;;;;;;5033620;28;20184;-50
2023/12/29 07:59:54;;;;;;;4.20;1.37;;;9.30;99.90;;;;;;5033249;28;20599;-48
2023/12/29 08:03:07;;;;;;;4.23;1.47;;;9.20;99.90;;;;;;5033327;28;20187;-49
2023/12/29 08:05:33;;;;;;;12.17;1.60;;;9.20;99.90;;;;;;5033797;28;20182;-48
2023/12/29 08:07:59;;;;;;;6.53;1.73;;;9.20;99.90;;;;;;5028113;28;20193;-47
2023/12/29 08:10:25;;;;;;;5.20;1.33;;;9.20;99.90;;;;;;5015714;28;20203;-48
2023/12/29 08:12:54;;;;;;;7.40;1.40;;;9.10;99.90;;;;;;5033183;28;20181;-46
2023/12/29 08:15:26;;;;;;;4.90;1.10;;;9.10;99.90;;;;;;5032581;28;20689;-49
2023/12/29 08:17:55;;;;;;;8.37;1.93;;;9.10;99.90;;;;;;5033007;28;20730;-47
2023/12/29 08:20:59;;;;;;;5.93;1.43;;;9.10;99.90;;;;;;5032947;28;20218;-46
2023/12/29 08:23:26;;;;;;;6.57;1.23;;;9.10;99.90;;;;;;5033239;28;20160;-48
2023/12/29 08:25:58;;;;;;;4.57;1.30;;;9.10;99.90;;;;;;5032281;28;20197;-48
2023/12/29 08:28:25;;;;;;;6.43;1.60;;;9.10;99.90;;;;;;5035327;28;20173;-48
2023/12/29 08:30:51;;;;;;;6.43;1.63;;;9.10;99.90;;;;;;5019869;28;20212;-47
2023/12/29 08:33:17;;;;;;;5.63;1.23;;;9.10;99.90;;;;;;5020174;28;20359;-48
2023/12/29 08:35:45;;;;;;;5.20;1.40;;;9.10;99.90;;;;;;5036665;28;20259;-47
2023/12/29 08:38:25;;;;;;;5.00;1.50;;;9.10;99.90;;;;;;5037012;28;20559;-48
2023/12/29 08:40:56;;;;;;;5.50;1.00;;;9.10;99.90;;;;;;5037257;28;20280;-48
2023/12/29 08:43:26;;;;;;;4.67;1.47;;;9.10;99.90;;;;;;5037583;28;20188;-49
2023/12/29 08:45:52;;;;;;;4.87;1.33;;;9.10;99.90;;;;;;5037449;28;20181;-48
2023/12/29 08:48:18;;;;;;;9.60;1.97;;;9.00;99.90;;;;;;5036513;28;20226;-47
2023/12/29 08:50:51;;;;;;;6.60;1.50;;;9.10;99.90;;;;;;5036900;28;20673;-48
2023/12/29 08:53:21;;;;;;;4.73;1.30;;;9.00;99.90;;;;;;5037197;28;20177;-50
2023/12/29 08:55:47;;;;;;;4.10;1.07;;;9.00;99.90;;;;;;5036996;28;20185;-48
2023/12/29 08:58:13;;;;;;;5.33;1.20;;;9.00;99.90;;;;;;5037032;28;20192;-48
2023/12/29 09:00:39;;;;;;;5.67;1.57;;;9.00;99.90;;;;;;5019449;28;20229;-48
2023/12/29 09:03:09;;;;;;;6.37;1.30;;;9.00;99.90;;;;;;5037028;28;20585;-48
2023/12/29 09:05:39;;;;;;;4.00;1.10;;;9.00;99.90;;;;;;5037202;28;20580;-49
2023/12/29 09:08:05;;;;;;;4.33;1.07;;;9.10;99.90;;;;;;5014255;28;20270;-47
2023/12/29 09:10:31;;;;;;;1.03;0.70;;;9.10;99.90;;;;;;5036647;28;20194;-47
2023/12/29 09:12:56;;;;;;;4.37;1.00;;;9.10;99.90;;;;;;5019388;28;20185;-47
2023/12/29 09:15:23;;;;;;;4.97;1.00;;;9.10;99.90;;;;;;5036431;28;20280;-49
2023/12/29 09:17:55;;;;;;;2.20;0.80;;;9.20;99.90;;;;;;5036354;28;20193;-48
2023/12/29 09:20:21;;;;;;;3.53;0.97;;;9.20;99.90;;;;;;5019321;28;20206;-49
2023/12/29 09:22:47;;;;;;;4.70;0.83;;;9.20;99.90;;;;;;5036248;28;20181;-48
2023/12/29 09:25:14;;;;;;;2.93;1.07;;;9.30;99.90;;;;;;5036177;28;20196;-48
2023/12/29 09:27:43;;;;;;;6.17;1.10;;;9.30;99.90;;;;;;5031190;28;20195;-48
2023/12/29 09:30:09;;;;;;;3.00;1.00;;;9.30;99.90;;;;;;5035495;28;20227;-49
2023/12/29 09:32:35;;;;;;;2.40;1.13;;;9.30;99.90;;;;;;5036052;28;20180;-49
2023/12/29 09:35:01;;;;;;;3.70;1.00;;;9.30;99.90;;;;;;5018883;28;20204;-48
2023/12/29 09:37:26;;;;;;;2.00;0.73;;;9.40;99.90;;;;;;5018722;28;20173;-45
2023/12/29 09:39:53;;;;;;;2.80;0.90;;;9.50;99.90;;;;;;5035840;28;20196;-47
2023/12/29 09:42:24;;;;;;;3.17;0.80;;;9.50;99.90;;;;;;5036150;28;20334;-48
2023/12/29 09:44:53;;;;;;;4.83;1.23;;;9.60;99.90;;;;;;5018174;28;20745;-46
2023/12/29 10:11:24;;;;;;;1.27;0.90;;;10.10;99.90;;;;;;5035145;28;20758;-47
2023/12/29 10:14:03;;;;;;;6.27;1.10;;;10.20;99.90;;;;;;5035363;28;20597;-47
2023/12/29 10:17:01;;;;;;;2.43;0.67;;;10.20;99.90;;;;;;5035507;28;20219;-48
2023/12/29 10:20:10;;;;;;;3.73;0.73;;;10.20;99.90;;;;;;5034865;28;20202;-48
2023/12/29 10:23:00;;;;;;;3.50;0.80;;;10.30;99.90;;;;;;5027585;28;20202;-49
2023/12/29 10:28:48;;;;;;;1.03;0.63;;;10.30;99.90;;;;;;5034839;28;20173;-47
2023/12/29 10:31:16;;;;;;;2.23;0.60;;;10.40;99.90;;;;;;5034879;28;20200;-48
2023/12/29 10:34:31;;;;;;;4.33;1.10;;;10.40;99.90;;;;;;5034437;28;20224;-48
2023/12/29 10:37:06;;;;;;;1.83;0.70;;;10.50;99.90;;;;;;5035634;28;20517;-47
2023/12/29 10:39:32;;;;;;;0.67;0.50;;;10.60;99.90;;;;;;5034937;28;20331;-46
2023/12/29 10:42:06;;;;;;;2.53;0.83;;;10.60;99.90;;;;;;5034943;28;20255;-47
2023/12/29 10:44:35;;;;;;;2.57;0.90;;;10.70;99.90;;;;;;5034272;28;20195;-47
2023/12/29 10:47:23;;;;;;;5.50;1.03;;;10.70;99.90;;;;;;5034846;28;20186;-48
2023/12/29 10:50:03;;;;;;;1.00;0.57;;;10.70;99.90;;;;;;5034924;28;20212;-46
2023/12/29 10:55:55;;;;;;;4.20;1.43;;;10.90;99.90;;;;;;5034327;28;20594;-47
2023/12/29 10:58:21;;;;;;;2.13;0.90;;;10.90;99.90;;;;;;5017168;28;20230;-47
2023/12/29 11:00:48;;;;;;;1.90;0.70;;;11.00;99.90;;;;;;5016394;28;20208;-46
2023/12/29 11:03:17;;;;;;;3.20;0.73;;;11.00;99.90;;;;;;5034804;28;20253;-47
2023/12/29 11:06:08;;;;;;;9.53;1.43;;;11.10;99.90;;;;;;5000345;28;20536;-46
2023/12/29 11:08:39;;;;;;;4.90;1.10;;;11.20;99.90;;;;;;5034436;28;20179;-48
2023/12/29 11:11:07;;;;;;;3.33;1.10;;;11.30;99.90;;;;;;5016477;28;20574;-47
2023/12/29 11:13:33;;;;;;;5.37;1.20;;;11.30;99.90;;;;;;5016976;28;20192;-47
2023/12/29 11:16:01;;;;;;;1.20;0.67;;;11.40;99.90;;;;;;5029140;28;20550;-47
2023/12/29 11:18:33;;;;;;;3.30;1.10;;;11.40;99.90;;;;;;5014585;28;20251;-48
2023/12/29 11:21:06;;;;;;;4.00;0.70;;;11.40;99.90;;;;;;5033849;28;20212;-47
2023/12/29 11:23:32;;;;;;;1.50;0.50;;;11.40;99.90;;;;;;5034183;28;20181;-48
2023/12/29 11:26:10;;;;;;;4.17;0.83;;;11.40;99.90;;;;;;5033932;28;20314;-49
2023/12/29 11:28:36;;;;;;;4.77;0.80;;;11.40;99.90;;;;;;5034151;28;20238;-47
2023/12/29 11:31:02;;;;;;;0.80;0.50;;;11.40;99.90;;;;;;5034054;28;20216;-49
2023/12/29 11:33:50;;;;;;;4.73;0.83;;;11.50;99.90;;;;;;5033698;28;20189;-47
2023/12/29 11:36:28;;;;;;;4.83;1.00;;;11.40;99.90;;;;;;5033024;28;20191;-48
2023/12/29 11:39:01;;;;;;;1.07;0.80;;;11.30;99.90;;;;;;5015240;28;20236;-48
2023/12/29 11:42:05;;;;;;;4.03;0.80;;;11.30;99.90;;;;;;5033760;28;20209;-46
2023/12/29 11:44:34;;;;;;;2.20;0.57;;;11.20;99.90;;;;;;5033842;28;20195;-47
2023/12/29 11:47:00;;;;;;;0.73;0.57;;;11.10;99.90;;;;;;5033648;28;20188;-47
2023/12/29 11:49:25;;;;;;;2.73;0.77;;;11.10;99.90;;;;;;5016515;28;20197;-47
2023/12/29 11:51:55;;;;;;;2.27;0.90;;;11.10;99.90;;;;;;5033566;28;20188;-47
2023/12/29 11:54:26;;;;;;;2.60;0.77;;;11.10;99.90;;;;;;5016190;28;20719;-48
2023/12/29 11:56:55;;;;;;;1.63;0.60;;;11.10;99.90;;;;;;5015785;28;20195;-47
2023/12/29 11:59:27;;;;;;;2.83;0.60;;;11.10;99.90;;;;;;5033362;28;20177;-47
2023/12/29 12:05:48;;;;;;;1.97;0.57;;;11.10;99.90;;;;;;5033551;28;20200;-48
2023/12/29 12:08:42;;;;;;;4.73;1.00;;;11.00;99.90;;;;;;5033732;28;20196;-48
2023/12/29 12:11:36;;;;;;;1.83;1.17;;;11.00;99.90;;;;;;5031555;28;20213;-48
2023/12/29 12:14:04;;;;;;;7.73;0.97;;;10.90;99.90;;;;;;5034341;28;20665;-49
2023/12/29 12:16:50;;;;;;;4.27;0.77;;;10.90;99.90;;;;;;5033768;28;20213;-47
2023/12/29 12:19:20;;;;;;;1.37;0.60;;;10.90;99.90;;;;;;5033157;28;20220;-47
2023/12/29 12:21:51;;;;;;;4.83;0.90;;;10.80;99.90;;;;;;5033160;28;20203;-48
2023/12/29 12:24:20;;;;;;;2.83;0.77;;;10.80;99.90;;;;;;5033211;28;20215;-47
2023/12/29 12:26:46;;;;;;;2.47;0.97;;;10.70;99.90;;;;;;5033465;28;20649;-47
2023/12/29 12:29:14;;;;;;;1.30;0.70;;;10.70;99.90;;;;;;5016230;28;20181;-47
2023/12/29 12:31:53;;;;;;;6.03;0.77;;;10.70;99.90;;;;;;5018923;28;20212;-47
2023/12/29 12:34:20;;;;;;;1.93;0.90;;;10.70;99.90;;;;;;5033910;28;20220;-47
2023/12/29 12:36:56;;;;;;;2.33;0.70;;;10.70;99.90;;;;;;5034844;28;20541;-47
2023/12/29 12:39:23;;;;;;;1.53;0.60;;;10.70;99.90;;;;;;5015948;28;20203;-47
2023/12/29 12:41:49;;;;;;;1.30;0.70;;;10.70;99.90;;;;;;5033141;28;20199;-48
2023/12/29 12:44:20;;;;;;;1.00;0.57;;;10.70;99.90;;;;;;5033123;28;20563;-48
2023/12/29 12:47:03;;;;;;;3.20;0.73;;;10.70;99.90;;;;;;5015360;28;20254;-47
2023/12/29 12:49:30;;;;;;;1.70;0.50;;;10.70;99.90;;;;;;5033356;28;20549;-47
2023/12/29 12:51:55;;;;;;;2.17;0.63;;;10.70;99.90;;;;;;5032496;28;20547;-47
2023/12/29 12:54:22;;;;;;;2.37;0.80;;;10.70;99.90;;;;;;5032934;28;20219;-48
2023/12/29 12:56:52;;;;;;;2.83;0.70;;;10.70;99.90;;;;;;5015774;28;20231;-48
2023/12/29 12:59:21;;;;;;;2.03;0.87;;;10.70;99.90;;;;;;5033079;28;20265;-47
2023/12/29 13:01:47;;;;;;;2.27;0.90;;;10.70;99.90;;;;;;5032931;28;20177;-46
2023/12/29 13:04:16;;;;;;;0.77;0.60;;;10.70;99.90;;;;;;5032662;28;20668;-47
2023/12/29 13:06:46;;;;;;;4.47;0.60;;;10.70;99.90;;;;;;5033161;28;20541;-47
2023/12/29 13:09:21;;;;;;;5.10;0.80;;;10.70;99.90;;;;;;5016298;28;20177;-47
2023/12/29 13:11:47;;;;;;;2.80;0.67;;;10.70;99.90;;;;;;5015855;28;20211;-47
2023/12/29 13:14:22;;;;;;;2.07;0.70;;;10.70;99.90;;;;;;5033025;28;20670;-49
2023/12/29 13:16:49;;;;;;;3.23;0.87;;;10.70;99.90;;;;;;5014927;28;20191;-48
2023/12/29 13:19:27;;;;;;;2.70;0.60;;;10.70;99.90;;;;;;5032711;28;20193;-48
2023/12/29 13:22:10;;;;;;;2.33;0.70;;;10.70;99.90;;;;;;5017707;28;20227;-49
2023/12/29 13:24:47;;;;;;;0.97;0.60;;;10.70;99.90;;;;;;5036271;28;20208;-47
2023/12/29 13:27:15;;;;;;;1.07;0.63;;;10.70;99.90;;;;;;5036703;28;20280;-48
2023/12/29 13:29:43;;;;;;;1.80;0.80;;;10.80;99.90;;;;;;5035415;28;20244;-48
2023/12/29 13:32:29;;;;;;;1.73;0.47;;;10.80;99.90;;;;;;5036091;28;20181;-47
2023/12/29 13:38:25;;;;;;;4.50;0.70;;;10.80;99.90;;;;;;5036023;28;20173;-48
2023/12/29 13:41:00;;;;;;;2.60;0.87;;;10.80;99.90;;;;;;5036027;28;20196;-47
2023/12/29 13:43:32;;;;;;;1.63;0.57;;;10.80;99.90;;;;;;5035111;28;20274;-47
2023/12/29 13:46:00;;;;;;;1.20;0.77;;;10.80;99.90;;;;;;5035393;28;20197;-47
2023/12/29 13:48:40;;;;;;;3.00;0.50;;;10.70;99.90;;;;;;5018194;28;20177;-49
2023/12/29 13:51:06;;;;;;;1.77;0.50;;;10.70;99.90;;;;;;5017880;28;20204;-49
2023/12/29 13:53:32;;;;;;;2.70;0.80;;;10.60;99.90;;;;;;5017870;28;20556;-47
2023/12/29 13:56:11;;;;;;;0.50;0.50;;;10.60;99.90;;;;;;5018296;28;20194;-47
2023/12/29 13:58:37;;;;;;;2.47;0.50;;;10.50;99.90;;;;;;5035668;28;20196;-47
2023/12/29 14:01:11;;;;;;;5.30;0.70;;;10.50;99.90;;;;;;5036001;28;20204;-48
2023/12/29 14:03:50;;;;;;;2.50;0.70;;;10.40;99.90;;;;;;5035487;28;20168;-47
2023/12/29 14:06:52;;;;;;;2.57;0.60;;;10.40;99.90;;;;;;5013993;28;20228;-47